createdAt,value
2022-10-28T00:01:24.674Z,95.11
2022-10-28T00:03:54.641Z,95.90
2022-10-28T00:06:24.626Z,96.00
2022-10-28T00:08:52.547Z,95.83
2022-10-28T00:11:23.210Z,96.15
2022-10-28T00:13:53.979Z,95.98
2022-10-28T00:16:26.507Z,96.59
2022-10-28T00:18:55.124Z,96.90
2022-10-28T00:21:25.361Z,96.92
2022-10-28T00:23:53.508Z,97.10
2022-10-28T00:26:23.081Z,97.39
2022-10-28T00:28:53.255Z,97.13
2022-10-28T00:31:24.654Z,97.17
2022-10-28T00:33:53.285Z,96.63
2022-10-28T00:36:23.464Z,97.17
2022-10-28T00:38:52.783Z,97.44
2022-10-28T00:41:23.106Z,97.31
2022-10-28T00:43:53.159Z,97.91
2022-10-28T00:46:29.568Z,98.29
2022-10-28T00:49:02.799Z,98.43
2022-10-28T00:51:34.627Z,98.52
2022-10-28T00:54:04.207Z,98.02
2022-10-28T00:56:35.387Z,98.29
2022-10-28T00:59:08.461Z,98.54
2022-10-28T01:01:37.788Z,99.00
2022-10-28T01:04:05.985Z,99.22
2022-10-28T01:06:33.916Z,99.55
2022-10-28T01:09:01.824Z,99.38
2022-10-28T01:11:43.371Z,99.46
2022-10-28T01:14:21.644Z,99.72
2022-10-28T01:17:04.770Z,99.21
2022-10-28T01:20:20.336Z,99.17
2022-10-28T01:22:56.710Z,98.70
2022-10-28T01:25:58.153Z,98.33
2022-10-28T01:29:02.962Z,98.08
2022-10-28T01:31:41.402Z,97.62
2022-10-28T01:34:19.854Z,97.45
2022-10-28T01:36:59.012Z,96.62
2022-10-28T01:39:33.815Z,96.95
2022-10-28T01:42:16.222Z,96.85
2022-10-28T01:44:50.384Z,96.81
2022-10-28T01:47:24.070Z,97.08
2022-10-28T01:49:57.409Z,97.62
2022-10-28T01:52:28.649Z,97.16
2022-10-28T01:55:05.507Z,97.29
2022-10-28T01:57:37.181Z,97.69
2022-10-28T02:00:06.879Z,98.11
2022-10-28T02:02:38.513Z,98.18
2022-10-28T02:05:28.388Z,98.21
2022-10-28T02:08:01.784Z,98.02
2022-10-28T02:10:38.706Z,97.88
2022-10-28T02:13:13.109Z,98.50
2022-10-28T02:15:47.144Z,98.59
2022-10-28T02:18:28.420Z,98.86
2022-10-28T02:21:03.514Z,98.87
2022-10-28T02:23:43.500Z,99.02
2022-10-28T02:26:18.936Z,98.43
2022-10-28T02:28:51.715Z,98.41
2022-10-28T02:31:24.788Z,97.86
2022-10-28T02:33:58.285Z,97.22
2022-10-28T02:36:29.830Z,97.15
2022-10-28T02:39:00.685Z,97.08
2022-10-28T02:41:34.699Z,97.15
2022-10-28T02:44:10.139Z,97.28
2022-10-28T02:46:40.963Z,97.03
2022-10-28T02:49:13.656Z,97.41
2022-10-28T02:51:45.949Z,97.85
2022-10-28T02:54:17.169Z,97.94
2022-10-28T02:56:52.697Z,97.49
2022-10-28T02:59:20.810Z,98.06
2022-10-28T03:01:48.848Z,98.09
2022-10-28T03:04:18.579Z,98.92
2022-10-28T03:06:46.562Z,98.55
2022-10-28T03:09:14.557Z,99.07
2022-10-28T03:11:42.604Z,99.58
2022-10-28T03:14:13.172Z,100.00
2022-10-28T03:16:43.556Z,99.85
2022-10-28T03:19:11.493Z,99.64
2022-10-28T03:21:40.727Z,99.17
2022-10-28T03:24:09.060Z,99.03
2022-10-28T03:26:37.073Z,98.80
2022-10-28T03:29:05.119Z,98.80
2022-10-28T03:31:33.175Z,98.80
2022-10-28T03:34:01.059Z,98.39
2022-10-28T03:36:29.053Z,98.34
2022-10-28T03:38:58.532Z,98.26
2022-10-28T03:41:26.463Z,98.29
2022-10-28T03:43:54.407Z,97.78
2022-10-28T03:46:22.585Z,97.61
2022-10-28T03:48:50.494Z,97.80
2022-10-28T03:51:18.794Z,97.63
2022-10-28T03:53:46.860Z,97.51
2022-10-28T03:56:16.222Z,97.16
2022-10-28T03:58:44.196Z,97.17
2022-10-28T04:01:12.412Z,96.75
2022-10-28T04:03:40.424Z,96.90
2022-10-28T04:06:10.092Z,96.37
2022-10-28T04:08:38.264Z,95.77
2022-10-28T04:11:06.461Z,96.22
2022-10-28T04:13:36.052Z,96.11
2022-10-28T04:16:04.355Z,95.58
2022-10-28T04:18:32.320Z,95.74
2022-10-28T04:21:00.280Z,96.36
2022-10-28T04:23:29.395Z,96.16
2022-10-28T04:25:57.435Z,96.19
2022-10-28T04:28:25.437Z,96.54
2022-10-28T04:30:54.871Z,96.40
2022-10-28T04:33:22.809Z,96.43
2022-10-28T04:35:50.929Z,96.25
2022-10-28T04:38:18.978Z,96.31
2022-10-28T04:40:49.115Z,96.50
2022-10-28T04:43:17.033Z,96.68
2022-10-28T04:45:47.000Z,96.90
2022-10-28T04:48:16.303Z,96.74
2022-10-28T04:50:44.863Z,97.26
2022-10-28T04:53:23.073Z,96.85
2022-10-28T04:55:50.899Z,97.37
2022-10-28T04:58:18.767Z,97.34
2022-10-28T05:00:46.803Z,97.42
2022-10-28T05:03:14.706Z,97.29
2022-10-28T05:05:42.863Z,97.63
2022-10-28T05:08:10.785Z,97.33
2022-10-28T05:10:40.070Z,97.53
2022-10-28T05:13:07.947Z,97.81
2022-10-28T05:15:35.829Z,98.11
2022-10-28T05:18:03.823Z,97.90
2022-10-28T05:20:31.713Z,98.23
2022-10-28T05:22:59.793Z,98.17
2022-10-28T05:25:27.946Z,98.03
2022-10-28T05:27:59.510Z,97.80
2022-10-28T05:30:27.969Z,97.72
2022-10-28T05:33:01.321Z,97.53
2022-10-28T05:35:29.579Z,97.53
2022-10-28T05:37:57.961Z,97.36
2022-10-28T05:40:26.444Z,98.03
2022-10-28T05:42:54.574Z,97.94
2022-10-28T05:45:24.048Z,98.38
2022-10-28T05:47:52.773Z,98.51
2022-10-28T05:50:21.810Z,98.97
2022-10-28T05:52:50.848Z,98.92
2022-10-28T05:55:20.618Z,99.40
2022-10-28T05:57:48.928Z,99.92
2022-10-28T06:00:18.595Z,99.89
2022-10-28T06:02:48.149Z,99.84
2022-10-28T06:05:16.463Z,99.98
2022-10-28T06:07:44.394Z,99.81
2022-10-28T06:10:13.116Z,100.00
2022-10-28T06:12:39.555Z,99.57
2022-10-28T06:15:08.502Z,99.76
2022-10-28T06:17:36.403Z,99.86
2022-10-28T06:20:06.800Z,99.88
2022-10-28T06:22:35.026Z,99.42
2022-10-28T06:25:06.237Z,99.57
2022-10-28T06:27:34.405Z,99.84
2022-10-28T06:30:02.586Z,100.00
2022-10-28T06:32:31.169Z,100.00
2022-10-28T06:34:59.535Z,100.00
2022-10-28T06:37:28.944Z,100.00
2022-10-28T06:39:59.088Z,100.00
2022-10-28T06:42:27.152Z,100.00
2022-10-28T06:44:56.560Z,100.00
2022-10-28T06:47:26.949Z,100.00
2022-10-28T06:49:55.235Z,99.95
2022-10-28T06:52:23.143Z,99.96
2022-10-28T06:54:52.515Z,99.55
2022-10-28T06:57:20.695Z,99.46
2022-10-28T06:59:49.981Z,99.44
2022-10-28T07:02:18.057Z,99.32
2022-10-28T07:04:46.766Z,99.16
2022-10-28T07:07:15.156Z,99.19
2022-10-28T07:09:45.067Z,99.15
2022-10-28T07:12:14.891Z,98.92
2022-10-28T07:14:43.661Z,98.39
2022-10-28T07:17:11.767Z,98.47
2022-10-28T07:19:40.204Z,98.61
2022-10-28T07:22:08.086Z,97.84
2022-10-28T07:24:36.055Z,97.43
2022-10-28T07:27:04.127Z,97.53
2022-10-28T07:29:33.461Z,96.99
2022-10-28T07:32:01.357Z,97.21
2022-10-28T07:34:29.319Z,96.71
2022-10-28T07:36:57.733Z,96.52
2022-10-28T07:39:26.029Z,96.69
2022-10-28T07:41:54.105Z,96.59
2022-10-28T07:44:22.175Z,96.24
2022-10-28T07:46:54.313Z,95.71
2022-10-28T07:49:25.276Z,95.62
2022-10-28T07:51:53.351Z,95.05
2022-10-28T07:54:21.289Z,94.85
2022-10-28T07:56:49.270Z,94.18
2022-10-28T07:59:17.352Z,94.10
2022-10-28T08:01:45.479Z,93.76
2022-10-28T08:04:14.952Z,93.41
2022-10-28T08:06:44.452Z,93.10
2022-10-28T08:09:12.396Z,92.96
2022-10-28T08:11:40.334Z,92.92
2022-10-28T08:14:08.349Z,92.74
2022-10-28T08:16:36.295Z,92.39
2022-10-28T08:19:07.624Z,91.57
2022-10-28T08:21:37.433Z,91.21
2022-10-28T08:24:05.618Z,90.81
2022-10-28T08:26:33.570Z,90.09
2022-10-28T08:29:02.174Z,89.66
2022-10-28T08:31:30.183Z,89.55
2022-10-28T08:33:58.091Z,89.35
2022-10-28T08:36:26.091Z,88.62
2022-10-28T08:38:55.902Z,88.63
2022-10-28T08:41:32.581Z,88.07
2022-10-28T08:44:21.527Z,87.56
2022-10-28T08:47:02.621Z,86.72
2022-10-28T08:49:35.011Z,87.14
2022-10-28T08:52:09.509Z,86.15
2022-10-28T08:54:47.338Z,85.06
2022-10-28T08:57:19.780Z,85.88
2022-10-28T08:59:52.121Z,84.91
2022-10-28T09:02:23.306Z,84.81
2022-10-28T09:04:58.131Z,84.54
2022-10-28T09:07:26.605Z,84.08
2022-10-28T09:09:59.857Z,83.90
2022-10-28T09:12:39.614Z,83.33
2022-10-28T09:15:24.430Z,82.35
2022-10-28T09:17:55.378Z,83.16
2022-10-28T09:20:34.185Z,83.03
2022-10-28T09:23:10.649Z,82.24
2022-10-28T09:25:49.015Z,81.87
2022-10-28T09:28:31.329Z,81.15
2022-10-28T09:31:04.559Z,81.15
2022-10-28T09:33:55.837Z,80.46
2022-10-28T09:36:30.596Z,81.10
2022-10-28T09:39:00.926Z,80.73
2022-10-28T09:41:34.961Z,80.59
2022-10-28T09:44:12.694Z,80.20
2022-10-28T09:46:41.911Z,80.13
2022-10-28T09:49:15.722Z,80.03
2022-10-28T09:51:49.731Z,79.93
2022-10-28T09:54:18.645Z,79.71
2022-10-28T09:56:48.053Z,78.62
2022-10-28T09:59:17.561Z,78.31
2022-10-28T10:01:47.870Z,78.82
2022-10-28T10:04:21.461Z,78.71
2022-10-28T10:06:53.302Z,78.62
2022-10-28T10:09:24.960Z,77.91
2022-10-28T10:11:57.135Z,76.25
2022-10-28T10:14:30.046Z,77.33
2022-10-28T10:17:01.445Z,77.16
2022-10-28T10:19:29.518Z,76.39
2022-10-28T10:21:58.732Z,76.47
2022-10-28T10:24:32.066Z,76.28
2022-10-28T10:27:05.159Z,75.60
2022-10-28T10:29:33.833Z,76.27
2022-10-28T10:32:19.059Z,75.53
2022-10-28T10:34:55.415Z,75.90
2022-10-28T10:37:24.944Z,76.19
2022-10-28T10:40:06.635Z,75.85
2022-10-28T10:42:42.695Z,76.09
2022-10-28T10:45:25.913Z,75.54
2022-10-28T10:48:15.031Z,75.04
2022-10-28T10:50:45.342Z,75.77
2022-10-28T10:53:24.038Z,74.43
2022-10-28T10:55:55.460Z,74.75
2022-10-28T10:58:27.785Z,74.18
2022-10-28T11:00:58.327Z,73.95
2022-10-28T11:03:29.532Z,73.43
2022-10-28T11:06:22.008Z,73.13
2022-10-28T11:08:47.217Z,71.78
2022-10-28T11:11:20.029Z,70.65
2022-10-28T11:14:03.288Z,70.30
2022-10-28T11:16:31.553Z,69.10
2022-10-28T11:18:59.579Z,67.13
2022-10-28T11:21:48.070Z,65.81
2022-10-28T11:24:31.498Z,65.91
2022-10-28T11:27:10.430Z,63.94
2022-10-28T11:29:40.237Z,63.68
2022-10-28T11:33:01.328Z,62.22
2022-10-28T11:35:43.616Z,63.15
2022-10-28T11:38:24.569Z,62.02
2022-10-28T11:41:07.794Z,62.72
2022-10-28T11:43:48.633Z,62.75
2022-10-28T11:46:27.961Z,62.66
2022-10-28T11:49:10.867Z,62.20
2022-10-28T11:51:47.107Z,63.07
2022-10-28T11:54:29.527Z,62.28
2022-10-28T11:57:04.349Z,62.79
2022-10-28T12:00:02.989Z,62.00
2022-10-28T12:02:57.159Z,62.47
2022-10-28T12:05:32.012Z,62.96
2022-10-28T12:08:22.858Z,61.61
2022-10-28T12:11:08.668Z,61.75
2022-10-28T12:13:45.899Z,61.84
2022-10-28T12:16:19.652Z,62.25
2022-10-28T12:18:55.959Z,61.51
2022-10-28T12:21:32.758Z,61.24
2022-10-28T12:24:01.604Z,60.86
2022-10-28T12:26:38.958Z,60.02
2022-10-28T12:29:15.067Z,60.80
2022-10-28T12:31:47.542Z,61.17
2022-10-28T12:34:24.588Z,61.11
2022-10-28T12:36:58.383Z,60.74
2022-10-28T12:39:32.446Z,60.74
2022-10-28T12:42:06.257Z,61.25
2022-10-28T12:44:37.873Z,61.67
2022-10-28T12:47:18.952Z,61.24
2022-10-28T12:50:01.505Z,61.71
2022-10-28T12:52:39.596Z,61.99
2022-10-28T12:55:31.015Z,61.86
2022-10-28T12:58:04.888Z,62.17
2022-10-28T13:00:38.296Z,61.37
2022-10-28T13:03:08.823Z,61.68
2022-10-28T13:05:45.246Z,61.17
2022-10-28T13:08:39.470Z,61.02
2022-10-28T13:11:45.315Z,61.30
2022-10-28T13:14:29.991Z,61.15
2022-10-28T13:17:19.756Z,60.88
2022-10-28T13:20:22.556Z,60.07
2022-10-28T13:23:11.937Z,59.60
2022-10-28T13:25:54.877Z,60.07
2022-10-28T13:28:30.662Z,60.49
2022-10-28T13:31:00.821Z,60.49
2022-10-28T13:33:30.869Z,60.58
2022-10-28T13:36:11.829Z,59.99
2022-10-28T13:38:41.725Z,61.00
2022-10-28T13:41:28.363Z,60.77
2022-10-28T13:44:27.228Z,60.98
2022-10-28T13:47:26.483Z,61.65
2022-10-28T13:50:15.628Z,61.52
2022-10-28T13:52:45.541Z,62.23
2022-10-28T13:55:25.090Z,62.13
2022-10-28T13:58:00.253Z,62.82
2022-10-28T14:00:38.911Z,62.61
2022-10-28T14:03:17.852Z,63.28
2022-10-28T14:05:55.209Z,63.47
2022-10-28T14:08:29.476Z,64.10
2022-10-28T14:11:05.326Z,64.02
2022-10-28T14:13:36.935Z,64.21
2022-10-28T14:16:22.910Z,63.76
2022-10-28T14:19:01.439Z,64.36
2022-10-28T14:21:45.912Z,64.13
2022-10-28T14:24:30.766Z,64.54
2022-10-28T14:27:30.823Z,64.49
2022-10-28T14:30:24.211Z,64.72
2022-10-28T14:33:20.613Z,65.00
2022-10-28T14:35:53.169Z,65.63
2022-10-28T14:38:50.836Z,65.78
2022-10-28T14:41:36.696Z,65.72
2022-10-28T14:44:25.126Z,65.87
2022-10-28T14:47:08.300Z,66.28
2022-10-28T14:49:38.031Z,66.41
2022-10-28T14:52:08.996Z,66.61
2022-10-28T14:54:44.845Z,67.11
2022-10-28T14:57:12.874Z,67.08
2022-10-28T14:59:45.502Z,67.53
2022-10-28T15:02:17.443Z,67.78
2022-10-28T15:04:47.575Z,68.18
2022-10-28T15:07:17.590Z,68.35
2022-10-28T15:09:48.837Z,68.97
2022-10-28T15:12:19.074Z,69.44
2022-10-28T15:14:50.881Z,69.88
2022-10-28T15:17:20.678Z,70.19
2022-10-28T15:19:50.432Z,70.73
2022-10-28T15:22:21.705Z,71.11
2022-10-28T15:25:00.784Z,71.47
2022-10-28T15:27:31.830Z,71.98
2022-10-28T15:30:01.398Z,72.34
2022-10-28T15:32:32.343Z,72.61
2022-10-28T15:35:01.028Z,73.09
2022-10-28T15:37:31.379Z,73.47
2022-10-28T15:40:20.509Z,73.85
2022-10-28T15:42:53.618Z,74.21
2022-10-28T15:45:26.073Z,74.48
2022-10-28T15:47:55.272Z,74.82
2022-10-28T15:50:32.539Z,75.55
2022-10-28T15:53:23.445Z,75.62
2022-10-28T15:56:10.677Z,76.05
2022-10-28T15:58:40.685Z,76.19
2022-10-28T16:01:28.987Z,76.82
2022-10-28T16:03:57.312Z,76.82
2022-10-28T16:06:31.030Z,77.07
2022-10-28T16:09:05.550Z,77.46
2022-10-28T16:11:36.551Z,77.84
2022-10-28T16:14:14.881Z,78.27
2022-10-28T16:16:45.042Z,78.77
2022-10-28T16:19:26.936Z,79.26
2022-10-28T16:21:54.951Z,79.66
2022-10-28T16:24:22.836Z,79.91
2022-10-28T16:26:50.927Z,80.20
2022-10-28T16:29:18.923Z,80.48
2022-10-28T16:31:52.199Z,80.89
2022-10-28T16:34:20.360Z,81.54
2022-10-28T16:36:48.274Z,81.19
2022-10-28T16:39:16.369Z,81.52
2022-10-28T16:41:44.350Z,81.66
2022-10-28T16:44:17.920Z,81.78
2022-10-28T16:46:45.852Z,81.52
2022-10-28T16:49:15.216Z,82.10
2022-10-28T16:51:45.026Z,81.92
2022-10-28T16:54:13.040Z,82.12
2022-10-28T16:56:40.879Z,82.13
2022-10-28T16:59:08.869Z,82.47
2022-10-28T17:01:36.955Z,82.50
2022-10-28T17:04:05.245Z,83.00
2022-10-28T17:06:39.121Z,83.06
2022-10-28T17:09:07.474Z,83.62
2022-10-28T17:11:35.469Z,84.02
2022-10-28T17:14:04.047Z,84.40
2022-10-28T17:16:31.966Z,84.63
2022-10-28T17:19:00.075Z,84.44
2022-10-28T17:21:27.966Z,84.31
2022-10-28T17:23:57.224Z,84.45
2022-10-28T17:26:25.067Z,84.88
2022-10-28T17:28:53.895Z,84.32
2022-10-28T17:31:24.878Z,84.23
2022-10-28T17:33:55.187Z,83.86
2022-10-28T17:36:24.237Z,83.59
2022-10-28T17:38:52.101Z,82.91
2022-10-28T17:41:21.726Z,82.66
2022-10-28T17:43:52.958Z,81.31
2022-10-28T17:46:21.517Z,80.48
2022-10-28T17:48:49.867Z,78.98
2022-10-28T17:51:20.187Z,77.62
2022-10-28T17:53:48.368Z,76.29
2022-10-28T17:56:16.398Z,75.89
2022-10-28T17:58:45.684Z,74.99
2022-10-28T18:01:13.885Z,74.20
2022-10-28T18:03:41.943Z,73.92
2022-10-28T18:06:13.450Z,73.08
2022-10-28T18:08:43.972Z,73.04
2022-10-28T18:11:14.431Z,72.96
2022-10-28T18:13:46.094Z,72.38
2022-10-28T18:16:15.640Z,72.80
2022-10-28T18:18:44.058Z,72.44
2022-10-28T18:21:15.745Z,72.49
2022-10-28T18:23:43.675Z,71.94
2022-10-28T18:26:13.585Z,71.79
2022-10-28T18:28:43.508Z,72.13
2022-10-28T18:31:15.198Z,71.96
2022-10-28T18:33:45.285Z,71.70
2022-10-28T18:36:15.215Z,71.95
2022-10-28T18:38:43.321Z,72.13
2022-10-28T18:41:12.456Z,71.98
2022-10-28T18:43:40.598Z,72.04
2022-10-28T18:46:09.378Z,71.75
2022-10-28T18:48:38.717Z,72.21
2022-10-28T18:51:09.523Z,72.39
2022-10-28T18:53:38.587Z,72.33
2022-10-28T18:56:07.547Z,72.51
2022-10-28T18:58:35.963Z,72.88
2022-10-28T19:01:09.050Z,72.36
2022-10-28T19:03:39.298Z,72.78
2022-10-28T19:06:09.475Z,73.13
2022-10-28T19:08:37.743Z,73.42
2022-10-28T19:11:06.887Z,74.00
2022-10-28T19:13:36.688Z,73.89
2022-10-28T19:16:05.568Z,73.92
2022-10-28T19:18:35.652Z,74.00
2022-10-28T19:21:07.676Z,74.15
2022-10-28T19:23:35.831Z,74.44
2022-10-28T19:26:04.886Z,74.53
2022-10-28T19:28:39.476Z,74.94
2022-10-28T19:31:09.838Z,74.90
2022-10-28T19:33:39.362Z,75.36
2022-10-28T19:36:11.735Z,75.64
2022-10-28T19:38:39.935Z,76.22
2022-10-28T19:41:10.197Z,76.68
2022-10-28T19:43:38.428Z,76.94
2022-10-28T19:46:09.841Z,76.90
2022-10-28T19:48:38.431Z,77.69
2022-10-28T19:51:06.951Z,78.06
2022-10-28T19:53:38.874Z,78.46
2022-10-28T19:56:07.275Z,78.79
2022-10-28T19:58:36.492Z,79.14
2022-10-28T20:01:07.185Z,79.49
2022-10-28T20:03:36.889Z,80.21
2022-10-28T20:06:08.514Z,80.24
2022-10-28T20:08:39.288Z,80.05
2022-10-28T20:11:08.860Z,80.68
2022-10-28T20:13:37.754Z,80.84
2022-10-28T20:16:08.107Z,80.67
2022-10-28T20:18:36.010Z,80.68
2022-10-28T20:21:05.555Z,80.84
2022-10-28T20:23:35.747Z,80.88
2022-10-28T20:26:05.685Z,80.86
2022-10-28T20:28:34.008Z,80.98
2022-10-28T20:31:03.472Z,80.91
2022-10-28T20:33:32.069Z,80.37
2022-10-28T20:36:00.360Z,80.29
2022-10-28T20:38:29.202Z,80.42
2022-10-28T20:40:58.650Z,80.48
2022-10-28T20:43:29.977Z,80.34
2022-10-28T20:45:59.790Z,80.44
2022-10-28T20:48:28.833Z,80.50
2022-10-28T20:50:58.661Z,80.23
2022-10-28T20:53:28.752Z,80.61
2022-10-28T20:55:58.483Z,80.50
2022-10-28T20:58:29.894Z,80.53
2022-10-28T21:01:03.768Z,80.63
2022-10-28T21:03:31.918Z,80.66
2022-10-28T21:06:00.228Z,80.58
2022-10-28T21:08:28.221Z,81.15
2022-10-28T21:10:56.289Z,81.63
2022-10-28T21:13:24.130Z,81.21
2022-10-28T21:15:56.601Z,81.44
2022-10-28T21:18:26.615Z,81.45
2022-10-28T21:20:57.548Z,81.21
2022-10-28T21:23:26.312Z,81.53
2022-10-28T21:25:54.745Z,81.59
2022-10-28T21:28:23.105Z,81.89
2022-10-28T21:30:51.366Z,82.29
2022-10-28T21:33:20.527Z,82.85
2022-10-28T21:35:55.947Z,82.62
2022-10-28T21:38:23.850Z,83.18
2022-10-28T21:40:59.859Z,83.97
2022-10-28T21:43:29.467Z,84.19
2022-10-28T21:45:57.642Z,84.77
2022-10-28T21:48:28.092Z,84.85
2022-10-28T21:50:57.428Z,85.31
2022-10-28T21:53:25.769Z,85.95
2022-10-28T21:55:55.635Z,85.65
2022-10-28T21:58:23.613Z,85.70
2022-10-28T22:00:51.758Z,85.37
2022-10-28T22:03:19.904Z,85.38
2022-10-28T22:05:52.515Z,85.53
2022-10-28T22:08:20.622Z,85.58
2022-10-28T22:10:48.521Z,85.54
2022-10-28T22:13:16.399Z,85.42
2022-10-28T22:15:44.309Z,85.24
2022-10-28T22:18:12.199Z,85.73
2022-10-28T22:20:40.148Z,85.47
2022-10-28T22:23:09.547Z,85.45
2022-10-28T22:25:37.459Z,85.50
2022-10-28T22:28:05.889Z,85.41
2022-10-28T22:30:33.972Z,85.23
2022-10-28T22:33:01.891Z,86.03
2022-10-28T22:35:29.913Z,86.47
2022-10-28T22:37:58.543Z,86.18
2022-10-28T22:40:29.433Z,85.72
2022-10-28T22:42:57.258Z,85.69
2022-10-28T22:45:25.120Z,86.10
2022-10-28T22:47:53.388Z,86.12
2022-10-28T22:50:21.737Z,86.42
2022-10-28T22:52:49.695Z,86.54
2022-10-28T22:55:17.685Z,86.62
2022-10-28T22:57:47.086Z,87.59
2022-10-28T23:00:15.769Z,88.27
2022-10-28T23:02:43.809Z,88.32
2022-10-28T23:05:11.895Z,88.07
2022-10-28T23:07:39.965Z,89.29
2022-10-28T23:10:08.750Z,89.41
2022-10-28T23:12:36.649Z,89.55
2022-10-28T23:15:06.944Z,90.05
2022-10-28T23:17:34.846Z,89.96
2022-10-28T23:20:02.768Z,89.97
2022-10-28T23:22:30.828Z,89.53
2022-10-28T23:24:58.656Z,89.00
2022-10-28T23:27:26.500Z,88.92
2022-10-28T23:29:54.688Z,89.10
2022-10-28T23:32:23.903Z,88.88
2022-10-28T23:34:51.734Z,88.44
2022-10-28T23:37:19.786Z,88.63
2022-10-28T23:39:47.593Z,88.54
2022-10-28T23:42:15.476Z,88.62
2022-10-28T23:44:43.444Z,88.33
2022-10-28T23:47:11.296Z,88.26
2022-10-28T23:49:40.718Z,87.72
2022-10-28T23:52:08.691Z,88.00
2022-10-28T23:54:37.246Z,88.29
2022-10-28T23:57:05.187Z,88.32
2022-10-28T23:59:33.160Z,88.28
